createdAt,value
2022-12-01T00:00:02.443Z,20.4
2022-12-01T00:05:01.030Z,20.3
2022-12-01T00:10:01.185Z,20.4
2022-12-01T00:15:01.089Z,20.4
2022-12-01T00:20:00.137Z,20.3
2022-12-01T00:25:00.134Z,20.4
2022-12-01T00:30:00.966Z,20.3
2022-12-01T00:35:00.111Z,20.3
2022-12-01T00:40:01.231Z,20.4
2022-12-01T00:45:02.544Z,20.4
2022-12-01T00:50:00.124Z,20.4
2022-12-01T00:55:00.107Z,20.4
2022-12-01T01:00:00.976Z,20.3
2022-12-01T01:05:00.140Z,20.3
2022-12-01T01:10:00.974Z,20.3
2022-12-01T01:15:00.128Z,20.3
2022-12-01T01:20:01.580Z,20.3
2022-12-01T01:25:01.200Z,20.3
2022-12-01T01:30:00.988Z,20.4
2022-12-01T01:35:02.582Z,20.3
2022-12-01T01:40:01.216Z,20.3
2022-12-01T01:45:00.148Z,20.3
2022-12-01T01:50:01.073Z,20.3
2022-12-01T01:55:01.263Z,20.3
2022-12-01T02:00:01.435Z,20.3
2022-12-01T02:05:00.119Z,20.3
2022-12-01T02:10:01.007Z,20.3
2022-12-01T02:15:01.443Z,20.3
2022-12-01T02:20:02.926Z,20.3
2022-12-01T02:25:00.141Z,20.3
2022-12-01T02:30:00.131Z,20.3
2022-12-01T02:35:03.038Z,20.3
2022-12-01T02:40:01.494Z,20.3
2022-12-01T02:45:01.024Z,20.3
2022-12-01T02:50:00.134Z,20.3
2022-12-01T02:55:01.191Z,20.3
2022-12-01T03:00:01.120Z,20.3
2022-12-01T03:05:01.439Z,20.3
2022-12-01T03:10:00.829Z,20.3
2022-12-01T03:15:00.110Z,20.3
2022-12-01T03:20:01.056Z,20.3
2022-12-01T03:25:00.100Z,20.3
2022-12-01T03:30:01.525Z,20.3
2022-12-01T03:35:01.238Z,20.3
2022-12-01T03:40:01.695Z,20.3
2022-12-01T03:45:00.111Z,20.3
2022-12-01T03:50:02.165Z,20.3
2022-12-01T03:55:00.101Z,20.3
2022-12-01T04:00:00.999Z,20.3
2022-12-01T04:05:00.104Z,20.3
2022-12-01T04:10:00.992Z,20.3
2022-12-01T04:15:01.191Z,20.3
2022-12-01T04:20:00.999Z,20.2
2022-12-01T04:25:00.089Z,20.2
2022-12-01T04:30:01.211Z,20.2
2022-12-01T04:35:00.091Z,20.3
2022-12-01T04:40:02.154Z,20.2
2022-12-01T04:45:01.297Z,20.3
2022-12-01T04:50:01.028Z,20.3
2022-12-01T04:55:01.230Z,20.2
2022-12-01T05:00:01.270Z,20.2
2022-12-01T05:05:00.961Z,20.2
2022-12-01T05:10:01.468Z,20.3
2022-12-01T05:15:00.105Z,20.2
2022-12-01T05:20:01.337Z,20.3
2022-12-01T05:25:00.136Z,20.2
2022-12-01T05:30:01.317Z,20.3
2022-12-01T05:35:01.230Z,20.3
2022-12-01T05:40:01.259Z,20.2
2022-12-01T05:45:00.116Z,20.2
2022-12-01T05:50:05.376Z,20.2
2022-12-01T05:55:00.103Z,20.2
2022-12-01T06:00:00.904Z,20.2
2022-12-01T06:05:01.055Z,20.3
2022-12-01T06:10:00.986Z,20.3
2022-12-01T06:15:00.117Z,20.2
2022-12-01T06:20:01.038Z,20.2
2022-12-01T06:25:00.940Z,20.2
2022-12-01T06:30:01.837Z,20.2
2022-12-01T06:35:01.057Z,20.2
2022-12-01T06:40:00.995Z,20.2
2022-12-01T06:45:00.951Z,20.2
2022-12-01T06:50:01.056Z,20.2
2022-12-01T06:55:00.100Z,20.2
2022-12-01T07:00:01.703Z,20.2
2022-12-01T07:05:01.224Z,20.2
2022-12-01T07:10:00.131Z,20.2
2022-12-01T07:15:01.224Z,20.1
2022-12-01T07:20:00.159Z,20.2
2022-12-01T07:25:02.557Z,20.2
2022-12-01T07:30:01.182Z,20.2
2022-12-01T07:35:00.101Z,20.2
2022-12-01T07:40:02.422Z,20.2
2022-12-01T07:45:00.128Z,20.2
2022-12-01T07:50:00.137Z,20.2
2022-12-01T07:55:01.243Z,20.2
2022-12-01T08:00:01.697Z,20.2
2022-12-01T08:05:01.224Z,20.2
2022-12-01T08:10:01.244Z,20.2
2022-12-01T08:15:02.696Z,20.2
2022-12-01T08:20:01.043Z,20.2
2022-12-01T08:25:00.939Z,20.2
2022-12-01T08:30:01.645Z,20.2
2022-12-01T08:35:04.112Z,20.2
2022-12-01T08:40:01.652Z,20.2
2022-12-01T08:45:01.814Z,20.2
2022-12-01T08:50:01.326Z,20.2
2022-12-01T08:55:01.294Z,20.3
2022-12-01T09:00:01.732Z,20.2
2022-12-01T09:05:01.229Z,20.3
2022-12-01T09:10:01.485Z,20.3
2022-12-01T09:15:01.270Z,20.2
2022-12-01T09:20:02.813Z,20.3
2022-12-01T09:25:02.127Z,20.3
2022-12-01T09:30:01.065Z,20.3
2022-12-01T09:35:02.211Z,20.3
2022-12-01T09:40:00.141Z,20.3
2022-12-01T09:45:01.309Z,20.3
2022-12-01T09:50:00.178Z,20.3
2022-12-01T09:55:01.501Z,20.3
2022-12-01T10:00:01.136Z,20.3
2022-12-01T10:05:01.101Z,20.3
2022-12-01T10:10:03.397Z,20.3
2022-12-01T10:15:01.303Z,20.3
2022-12-01T10:20:01.544Z,20.3
2022-12-01T10:25:00.144Z,20.3
2022-12-01T10:30:01.508Z,20.4
2022-12-01T10:35:01.740Z,20.4
2022-12-01T10:40:01.228Z,20.4
2022-12-01T10:45:01.586Z,20.4
2022-12-01T10:50:01.336Z,20.4
2022-12-01T10:55:00.108Z,20.4
2022-12-01T11:00:01.258Z,20.4
2022-12-01T11:05:01.232Z,20.4
2022-12-01T11:10:01.065Z,20.4
2022-12-01T11:15:01.543Z,20.4
2022-12-01T11:20:01.304Z,20.4
2022-12-01T11:25:00.136Z,20.5
2022-12-01T11:30:01.102Z,20.4
2022-12-01T11:35:01.067Z,20.5
2022-12-01T11:40:01.011Z,20.5
2022-12-01T11:45:01.020Z,20.5
2022-12-01T11:50:00.157Z,20.5
2022-12-01T11:55:04.378Z,20.5
2022-12-01T12:00:01.070Z,20.5
2022-12-01T12:05:00.119Z,20.4
2022-12-01T12:10:01.004Z,20.5
2022-12-01T12:15:01.030Z,20.5
2022-12-01T12:20:09.584Z,20.5
2022-12-01T12:25:00.109Z,20.5
2022-12-01T12:30:01.304Z,20.5
2022-12-01T12:35:00.128Z,20.5
2022-12-01T12:40:01.016Z,20.5
2022-12-01T12:45:02.889Z,20.5
2022-12-01T12:50:01.370Z,20.5
2022-12-01T12:55:01.034Z,20.5
2022-12-01T13:00:03.854Z,20.5
2022-12-01T13:05:00.112Z,20.5
2022-12-01T13:10:00.915Z,20.5
2022-12-01T13:15:01.598Z,20.5
2022-12-01T13:20:01.347Z,20.5
2022-12-01T13:25:04.080Z,20.5
2022-12-01T13:30:01.643Z,20.5
2022-12-01T13:35:01.086Z,20.5
2022-12-01T13:40:02.344Z,20.5
2022-12-01T13:45:00.141Z,20.5
2022-12-01T13:50:01.356Z,20.5
2022-12-01T13:55:01.259Z,20.5
2022-12-01T14:00:01.245Z,20.5
2022-12-01T14:05:00.158Z,20.5
2022-12-01T14:10:01.527Z,20.5
2022-12-01T14:15:00.964Z,20.5
2022-12-01T14:20:03.355Z,20.5
2022-12-01T14:25:01.236Z,20.5
2022-12-01T14:30:01.297Z,20.5
2022-12-01T14:35:00.097Z,20.5
2022-12-01T14:40:01.108Z,20.5
2022-12-01T14:45:01.321Z,20.5
2022-12-01T14:50:00.946Z,20.5
2022-12-01T14:55:00.129Z,20.5
2022-12-01T15:00:01.335Z,20.5
2022-12-01T15:05:00.107Z,20.5
2022-12-01T15:10:01.460Z,20.5
2022-12-01T15:15:01.069Z,20.5
2022-12-01T15:20:01.617Z,20.5
2022-12-01T15:25:00.095Z,20.5
2022-12-01T15:30:01.289Z,20.5
2022-12-01T15:35:00.120Z,20.5
2022-12-01T15:45:01.218Z,20.5
2022-12-01T15:50:00.959Z,20.5
2022-12-01T15:55:00.924Z,20.5
2022-12-01T16:00:02.096Z,20.5
2022-12-01T16:05:00.124Z,20.5
2022-12-01T16:10:01.306Z,20.5
2022-12-01T16:15:00.198Z,20.5
2022-12-01T16:20:00.156Z,20.5
2022-12-01T16:25:00.962Z,20.5
2022-12-01T16:30:01.119Z,20.5
2022-12-01T16:35:01.485Z,20.6
2022-12-01T16:40:01.180Z,20.5
2022-12-01T16:45:02.063Z,20.6
2022-12-01T16:50:00.231Z,20.6
2022-12-01T16:55:01.490Z,20.6
2022-12-01T17:00:02.270Z,20.5
2022-12-01T17:05:01.285Z,20.6
2022-12-01T17:10:00.142Z,20.6
2022-12-01T17:15:00.942Z,20.5
2022-12-01T17:20:01.283Z,20.5
2022-12-01T17:25:01.208Z,20.5
2022-12-01T17:30:00.129Z,20.5
2022-12-01T17:35:01.026Z,20.5
2022-12-01T17:40:02.188Z,20.5
2022-12-01T17:45:00.099Z,20.5
2022-12-01T17:50:01.080Z,20.5
2022-12-01T17:55:00.951Z,20.5
2022-12-01T18:00:01.161Z,20.4
2022-12-01T18:05:01.511Z,20.4
2022-12-01T18:10:00.118Z,20.5
2022-12-01T18:15:01.206Z,20.4
2022-12-01T18:20:01.445Z,20.4
2022-12-01T18:25:02.513Z,20.4
2022-12-01T18:30:00.315Z,20.4
2022-12-01T18:35:01.011Z,20.4
2022-12-01T18:40:01.206Z,20.4
2022-12-01T18:45:00.971Z,20.4
2022-12-01T18:50:01.287Z,20.4
2022-12-01T18:55:00.124Z,20.4
2022-12-01T19:00:01.703Z,20.4
2022-12-01T19:05:01.522Z,20.4
2022-12-01T19:10:02.676Z,20.4
2022-12-01T19:15:00.120Z,20.4
2022-12-01T19:20:01.301Z,20.4
2022-12-01T19:25:01.236Z,20.4
2022-12-01T19:30:02.133Z,20.4
2022-12-01T19:35:01.296Z,20.4
2022-12-01T19:40:01.527Z,20.4
2022-12-01T19:45:00.130Z,20.4
2022-12-01T19:50:01.709Z,20.5
2022-12-01T19:55:00.120Z,20.4
2022-12-01T20:00:01.752Z,20.5
2022-12-01T20:05:01.201Z,20.5
2022-12-01T20:10:00.146Z,20.5
2022-12-01T20:15:01.199Z,20.5
2022-12-01T20:20:01.107Z,20.4
2022-12-01T20:25:02.189Z,20.5
2022-12-01T20:30:02.142Z,20.5
2022-12-01T20:35:01.240Z,20.5
2022-12-01T20:40:01.580Z,20.5
2022-12-01T20:45:01.510Z,20.5
2022-12-01T20:50:01.604Z,20.5
2022-12-01T20:55:00.110Z,20.5
2022-12-01T21:00:01.097Z,20.5
2022-12-01T21:05:01.237Z,20.5
2022-12-01T21:10:01.943Z,20.6
2022-12-01T21:15:02.185Z,20.6
2022-12-01T21:20:01.328Z,20.6
2022-12-01T21:25:01.443Z,20.6
2022-12-01T21:30:00.992Z,20.7
2022-12-01T21:35:01.434Z,20.7
2022-12-01T21:40:00.172Z,20.7
2022-12-01T21:45:01.167Z,20.8
2022-12-01T21:50:01.033Z,20.7
2022-12-01T21:55:00.160Z,20.8
2022-12-01T22:00:00.181Z,20.8
2022-12-01T22:05:01.128Z,20.8
2022-12-01T22:10:04.874Z,20.8
2022-12-01T22:15:01.792Z,20.8
2022-12-01T22:20:01.570Z,20.8
2022-12-01T22:25:00.116Z,20.8
2022-12-01T22:30:01.475Z,20.8
2022-12-01T22:35:01.466Z,20.8
2022-12-01T22:40:01.999Z,20.8
2022-12-01T22:45:01.251Z,20.9
2022-12-01T22:50:01.069Z,20.9
2022-12-01T22:55:01.257Z,20.9
2022-12-01T23:00:04.252Z,20.9
2022-12-01T23:05:01.423Z,20.9
2022-12-01T23:10:01.017Z,20.9
2022-12-01T23:15:01.040Z,20.9
2022-12-01T23:20:01.226Z,20.9
2022-12-01T23:25:00.985Z,20.9
2022-12-01T23:30:01.271Z,20.9
2022-12-01T23:35:00.632Z,20.9
2022-12-01T23:40:02.401Z,20.9
2022-12-01T23:45:01.485Z,20.9
2022-12-01T23:50:01.291Z,21.0
2022-12-01T23:55:00.132Z,21.0
